Time;durP1;ratioP1;P1;durP2;ratioP2;P2;SDS_P1;SDS_P2;PMS_P1;PMS_P2;Temp;Humidity;BMP_temperature;BMP_pressure;BME280_temperature;BME280_humidity;BME280_pressure;Samples;Min_cycle;Max_cycle;Signal;HPM_P1;HPM_P2
2023/04/22 00:01:05;;;;;;;14.57;7.87;;;;;;;;;;4969066;28;20109;-68
2023/04/22 00:03:32;;;;;;;14.68;7.90;;;;;;;;;;4972836;28;20089;-68
2023/04/22 00:05:57;;;;;;;11.57;7.40;;;;;;;;;;4966155;28;20145;-67
2023/04/22 00:08:22;;;;;;;14.60;7.95;;;;;;;;;;4967996;28;20633;-71
2023/04/22 00:10:48;;;;;;;14.07;7.85;;;;;;;;;;4966543;28;20049;-64
2023/04/22 00:13:13;;;;;;;14.05;7.70;;;;;;;;;;4968366;28;20030;-64
2023/04/22 00:15:39;;;;;;;13.90;8.32;;;;;;;;;;4964814;28;20081;-67
2023/04/22 00:18:06;;;;;;;14.83;8.53;;;;;;;;;;4972338;28;20404;-75
2023/04/22 00:20:31;;;;;;;13.20;7.63;;;;;;;;;;4976975;28;20458;-66
2023/04/22 00:22:56;;;;;;;12.27;7.45;;;;;;;;;;4976709;28;20041;-68
2023/04/22 00:25:22;;;;;;;12.98;7.25;;;;;;;;;;4970732;28;20515;-64
2023/04/22 00:27:47;;;;;;;12.23;7.28;;;;;;;;;;4977280;28;20040;-68
2023/04/22 00:30:12;;;;;;;13.50;7.47;;;;;;;;;;4977446;28;20035;-64
2023/04/22 00:32:37;;;;;;;18.07;7.03;;;;;;;;;;4978602;28;20035;-68
2023/04/22 00:35:04;;;;;;;11.40;7.18;;;;;;;;;;4981667;28;20469;-71
2023/04/22 00:37:31;;;;;;;11.52;6.22;;;;;;;;;;4965190;28;20089;-65
2023/04/22 00:39:56;;;;;;;11.77;6.30;;;;;;;;;;4977657;28;20025;-65
2023/04/22 00:42:22;;;;;;;12.82;6.60;;;;;;;;;;4969239;28;20039;-67
2023/04/22 00:44:49;;;;;;;13.05;6.45;;;;;;;;;;4960616;28;20105;-68
2023/04/22 00:47:15;;;;;;;9.85;5.88;;;;;;;;;;4968350;28;20498;-69
2023/04/22 00:49:42;;;;;;;10.68;5.95;;;;;;;;;;4977294;28;20040;-65
2023/04/22 00:52:07;;;;;;;9.68;5.85;;;;;;;;;;4968299;28;20546;-67
2023/04/22 00:54:34;;;;;;;10.67;6.03;;;;;;;;;;4974707;28;20026;-66
2023/04/22 00:56:59;;;;;;;10.80;6.03;;;;;;;;;;4965640;28;20099;-70
2023/04/22 00:59:25;;;;;;;10.82;6.60;;;;;;;;;;4965147;28;20031;-70
2023/04/22 01:01:50;;;;;;;10.25;6.20;;;;;;;;;;4972745;28;20399;-66
2023/04/22 01:04:16;;;;;;;10.32;6.20;;;;;;;;;;4969276;28;20023;-66
2023/04/22 01:06:42;;;;;;;10.52;6.50;;;;;;;;;;4972347;28;20104;-68
2023/04/22 01:09:07;;;;;;;10.82;6.57;;;;;;;;;;4971083;28;20034;-68
2023/04/22 01:11:33;;;;;;;14.20;7.13;;;;;;;;;;4966354;28;20408;-65
2023/04/22 01:13:59;;;;;;;11.05;6.72;;;;;;;;;;4970539;28;20171;-66
2023/04/22 01:16:24;;;;;;;14.07;6.37;;;;;;;;;;4974258;28;20110;-64
2023/04/22 01:18:49;;;;;;;11.77;6.22;;;;;;;;;;4967686;28;20081;-71
2023/04/22 01:21:15;;;;;;;13.20;7.10;;;;;;;;;;4971112;28;20034;-64
2023/04/22 01:23:41;;;;;;;12.05;6.65;;;;;;;;;;4964920;28;20031;-66
2023/04/22 01:26:06;;;;;;;15.20;6.80;;;;;;;;;;4966839;28;20115;-65
2023/04/22 01:28:31;;;;;;;10.80;7.03;;;;;;;;;;4969004;28;20042;-66
2023/04/22 01:30:57;;;;;;;11.68;6.75;;;;;;;;;;4971921;28;20114;-65
2023/04/22 01:33:22;;;;;;;13.33;7.20;;;;;;;;;;4971603;28;20035;-68
2023/04/22 01:35:47;;;;;;;13.88;7.03;;;;;;;;;;4973799;28;20057;-65
2023/04/22 01:38:12;;;;;;;12.40;7.18;;;;;;;;;;4969218;28;20057;-64
2023/04/22 01:40:38;;;;;;;12.67;7.53;;;;;;;;;;4974034;28;20474;-70
2023/04/22 01:43:03;;;;;;;11.00;6.87;;;;;;;;;;4969488;28;20119;-65
2023/04/22 01:45:28;;;;;;;11.45;7.32;;;;;;;;;;4974403;28;20026;-65
2023/04/22 01:47:54;;;;;;;13.47;6.97;;;;;;;;;;4968194;28;20069;-68
2023/04/22 01:50:20;;;;;;;12.98;7.32;;;;;;;;;;4977805;28;20038;-66
2023/04/22 01:52:45;;;;;;;10.73;6.95;;;;;;;;;;4980662;28;20497;-68
2023/04/22 01:55:10;;;;;;;15.17;7.37;;;;;;;;;;4970677;28;20035;-66
2023/04/22 01:57:35;;;;;;;12.10;6.97;;;;;;;;;;4971463;28;20025;-72
2023/04/22 02:00:01;;;;;;;10.98;6.85;;;;;;;;;;4968738;28;20018;-64
2023/04/22 02:02:26;;;;;;;13.23;7.97;;;;;;;;;;4980695;28;20062;-70
2023/04/22 02:04:53;;;;;;;13.00;6.57;;;;;;;;;;4978819;28;20034;-65
2023/04/22 02:07:18;;;;;;;13.05;6.68;;;;;;;;;;4971496;28;20582;-65
2023/04/22 02:09:43;;;;;;;11.40;7.07;;;;;;;;;;4978918;28;20085;-66
2023/04/22 02:12:08;;;;;;;13.30;7.60;;;;;;;;;;4972070;28;20033;-70
2023/04/22 02:14:33;;;;;;;10.20;6.50;;;;;;;;;;4975690;28;20477;-66
2023/04/22 02:17:01;;;;;;;11.10;7.10;;;;;;;;;;4978279;28;20402;-67
2023/04/22 02:19:26;;;;;;;11.82;6.97;;;;;;;;;;4971613;28;20037;-67
2023/04/22 02:21:51;;;;;;;12.37;6.83;;;;;;;;;;4972807;28;20014;-66
2023/04/22 02:24:16;;;;;;;12.10;7.10;;;;;;;;;;4976956;28;20026;-65
2023/04/22 02:26:42;;;;;;;11.43;6.83;;;;;;;;;;4977107;28;20309;-70
2023/04/22 02:29:07;;;;;;;11.65;6.63;;;;;;;;;;4969479;28;20478;-65
2023/04/22 02:31:32;;;;;;;11.03;7.07;;;;;;;;;;4975097;28;20045;-65
2023/04/22 02:33:57;;;;;;;13.33;7.13;;;;;;;;;;4971419;28;20046;-70
2023/04/22 02:36:22;;;;;;;10.73;6.95;;;;;;;;;;4972072;28;20023;-66
2023/04/22 02:38:48;;;;;;;13.20;7.30;;;;;;;;;;4972888;28;20041;-67
2023/04/22 02:41:13;;;;;;;13.13;7.70;;;;;;;;;;4971458;28;20031;-68
2023/04/22 02:43:38;;;;;;;11.95;7.63;;;;;;;;;;4964328;28;20023;-66
2023/04/22 02:46:03;;;;;;;13.17;7.67;;;;;;;;;;4975845;28;20019;-66
2023/04/22 02:48:28;;;;;;;12.17;6.77;;;;;;;;;;4970984;28;20034;-65
2023/04/22 02:50:53;;;;;;;12.13;7.60;;;;;;;;;;4972014;28;20085;-69
2023/04/22 02:53:19;;;;;;;13.93;7.33;;;;;;;;;;4973997;28;20046;-66
2023/04/22 02:55:44;;;;;;;12.98;6.60;;;;;;;;;;4965728;28;20015;-65
2023/04/22 02:58:09;;;;;;;14.87;7.63;;;;;;;;;;4986779;28;20033;-68
2023/04/22 03:00:34;;;;;;;12.50;7.20;;;;;;;;;;4984956;28;20080;-66
2023/04/22 03:02:59;;;;;;;13.17;7.80;;;;;;;;;;4973073;28;20022;-67
2023/04/22 03:05:25;;;;;;;13.23;7.63;;;;;;;;;;4984708;28;20154;-65
2023/04/22 03:07:52;;;;;;;11.85;7.20;;;;;;;;;;4979223;28;20565;-68
2023/04/22 03:10:17;;;;;;;12.57;7.00;;;;;;;;;;4980301;28;20033;-64
2023/04/22 03:12:42;;;;;;;13.20;7.53;;;;;;;;;;4972409;28;20023;-64
2023/04/22 03:15:07;;;;;;;13.88;7.32;;;;;;;;;;4964603;28;20614;-64
2023/04/22 03:17:33;;;;;;;13.10;7.00;;;;;;;;;;4964020;28;20065;-65
2023/04/22 03:19:58;;;;;;;11.40;6.82;;;;;;;;;;4956214;28;20011;-66
2023/04/22 03:22:23;;;;;;;12.60;6.87;;;;;;;;;;4962831;28;20054;-71
2023/04/22 03:24:49;;;;;;;12.47;7.20;;;;;;;;;;4964326;28;20034;-65
2023/04/22 03:27:14;;;;;;;14.10;7.63;;;;;;;;;;4968931;28;20479;-65
2023/04/22 03:29:39;;;;;;;12.20;7.33;;;;;;;;;;4971602;28;20034;-64
2023/04/22 03:32:04;;;;;;;14.32;6.78;;;;;;;;;;4967355;28;20114;-65
2023/04/22 03:34:29;;;;;;;12.23;7.70;;;;;;;;;;4962712;28;20042;-64
2023/04/22 03:36:54;;;;;;;13.57;8.15;;;;;;;;;;4968650;28;20073;-64
2023/04/22 03:39:20;;;;;;;12.35;7.65;;;;;;;;;;4959158;28;20033;-67
2023/04/22 03:41:45;;;;;;;13.00;7.32;;;;;;;;;;4973511;28;20030;-64
2023/04/22 03:44:10;;;;;;;12.70;7.53;;;;;;;;;;4963887;28;20484;-70
2023/04/22 03:46:35;;;;;;;11.50;6.70;;;;;;;;;;4964410;28;20038;-66
2023/04/22 03:49:01;;;;;;;11.05;6.93;;;;;;;;;;4905010;28;1909792;-68
2023/04/22 03:51:27;;;;;;;12.70;7.38;;;;;;;;;;4966042;28;20038;-67
2023/04/22 03:53:52;;;;;;;12.23;7.30;;;;;;;;;;4967548;28;20034;-67
2023/04/22 03:56:18;;;;;;;11.03;7.70;;;;;;;;;;4973109;28;20026;-63
2023/04/22 03:58:44;;;;;;;11.97;6.67;;;;;;;;;;4969004;28;20512;-65
2023/04/22 04:01:10;;;;;;;13.77;7.90;;;;;;;;;;4970283;28;20035;-66
2023/04/22 04:03:35;;;;;;;12.15;7.80;;;;;;;;;;4962013;28;20037;-66
2023/04/22 04:06:00;;;;;;;12.55;7.10;;;;;;;;;;4965638;28;20033;-68
2023/04/22 04:08:26;;;;;;;13.40;7.60;;;;;;;;;;4967599;28;20062;-65
2023/04/22 04:10:51;;;;;;;13.48;7.38;;;;;;;;;;4971048;28;20027;-65
2023/04/22 04:13:16;;;;;;;14.65;7.25;;;;;;;;;;4966942;28;20022;-70
2023/04/22 04:15:42;;;;;;;12.20;7.03;;;;;;;;;;4976145;28;20034;-67
2023/04/22 04:18:08;;;;;;;13.00;7.63;;;;;;;;;;4959376;28;20047;-65
2023/04/22 04:20:33;;;;;;;14.57;7.78;;;;;;;;;;4962688;28;20065;-66
2023/04/22 04:22:58;;;;;;;12.00;6.88;;;;;;;;;;4970654;28;20504;-65
2023/04/22 04:25:23;;;;;;;11.90;7.65;;;;;;;;;;4977850;28;20039;-66
2023/04/22 04:27:50;;;;;;;12.03;7.30;;;;;;;;;;4967377;28;20080;-65
2023/04/22 04:30:16;;;;;;;12.15;7.07;;;;;;;;;;4975373;28;20022;-65
2023/04/22 04:32:41;;;;;;;11.63;7.43;;;;;;;;;;4976382;28;20149;-70
2023/04/22 04:35:07;;;;;;;15.17;8.37;;;;;;;;;;4967971;28;20059;-64
2023/04/22 04:37:32;;;;;;;14.73;7.97;;;;;;;;;;4972465;28;20049;-65
2023/04/22 04:40:00;;;;;;;13.18;7.15;;;;;;;;;;4970343;28;20027;-72
2023/04/22 04:42:25;;;;;;;13.25;7.40;;;;;;;;;;4964900;28;20139;-66
2023/04/22 04:44:52;;;;;;;14.35;7.28;;;;;;;;;;4966955;28;20154;-65
2023/04/22 04:47:17;;;;;;;12.52;7.30;;;;;;;;;;4973498;28;20503;-68
2023/04/22 04:49:42;;;;;;;13.20;7.15;;;;;;;;;;4973147;28;20126;-66
2023/04/22 04:52:10;;;;;;;12.37;7.23;;;;;;;;;;4973062;28;20050;-69
2023/04/22 04:54:35;;;;;;;17.40;7.97;;;;;;;;;;4974510;28;20376;-71
2023/04/22 04:57:00;;;;;;;16.38;7.30;;;;;;;;;;4974316;28;20037;-75
2023/04/22 04:59:26;;;;;;;14.67;6.90;;;;;;;;;;4965456;28;20147;-69
2023/04/22 05:01:51;;;;;;;10.70;6.63;;;;;;;;;;4976628;28;20030;-65
2023/04/22 05:04:16;;;;;;;11.27;6.40;;;;;;;;;;4967613;28;20089;-66
2023/04/22 05:06:41;;;;;;;10.95;7.03;;;;;;;;;;4970745;28;20031;-75
2023/04/22 05:09:06;;;;;;;12.88;7.20;;;;;;;;;;4975262;28;20027;-67
2023/04/22 05:11:31;;;;;;;12.30;7.00;;;;;;;;;;4970609;28;20094;-72
2023/04/22 05:13:57;;;;;;;13.13;7.67;;;;;;;;;;4972512;28;20558;-66
2023/04/22 05:16:22;;;;;;;10.93;7.00;;;;;;;;;;4979376;28;20038;-70
2023/04/22 05:18:47;;;;;;;14.25;7.55;;;;;;;;;;4971735;28;20038;-64
2023/04/22 05:21:12;;;;;;;10.93;6.43;;;;;;;;;;4973124;28;20527;-68
2023/04/22 05:23:38;;;;;;;11.03;6.80;;;;;;;;;;4976465;28;20019;-72
2023/04/22 05:26:03;;;;;;;12.23;6.90;;;;;;;;;;4983344;28;20031;-67
2023/04/22 05:28:28;;;;;;;12.43;6.97;;;;;;;;;;4977330;28;20041;-64
2023/04/22 05:30:54;;;;;;;9.90;6.30;;;;;;;;;;4979167;28;20150;-71
2023/04/22 05:33:19;;;;;;;12.73;7.25;;;;;;;;;;4974118;28;20023;-66
2023/04/22 05:35:44;;;;;;;12.63;7.47;;;;;;;;;;4980667;28;20019;-68
2023/04/22 05:38:09;;;;;;;10.80;7.43;;;;;;;;;;4971804;28;20038;-65
2023/04/22 05:40:35;;;;;;;12.05;7.43;;;;;;;;;;4968978;28;20030;-66
2023/04/22 05:43:01;;;;;;;12.88;7.03;;;;;;;;;;4966303;28;20037;-64
2023/04/22 05:45:26;;;;;;;15.73;7.60;;;;;;;;;;4967236;28;20038;-68
2023/04/22 05:47:54;;;;;;;10.67;6.60;;;;;;;;;;4967232;28;20034;-64
2023/04/22 05:50:19;;;;;;;11.63;6.68;;;;;;;;;;4967861;28;20510;-63
2023/04/22 05:52:45;;;;;;;9.90;6.80;;;;;;;;;;4971517;28;20031;-64
2023/04/22 05:55:10;;;;;;;11.13;7.20;;;;;;;;;;4977235;28;20015;-64
2023/04/22 05:57:35;;;;;;;10.97;7.17;;;;;;;;;;4969784;28;20074;-67
2023/04/22 06:00:02;;;;;;;11.98;6.68;;;;;;;;;;4973376;28;20562;-65
2023/04/22 06:02:27;;;;;;;10.07;6.50;;;;;;;;;;4972443;28;20042;-66
2023/04/22 06:04:52;;;;;;;12.13;7.30;;;;;;;;;;4969545;28;20018;-68
2023/04/22 06:07:17;;;;;;;10.00;6.63;;;;;;;;;;4970918;28;20093;-64
2023/04/22 06:09:42;;;;;;;11.70;7.20;;;;;;;;;;4969669;28;20735;-69
2023/04/22 06:12:07;;;;;;;10.13;6.27;;;;;;;;;;4969088;28;20019;-65
2023/04/22 06:14:33;;;;;;;12.93;7.83;;;;;;;;;;4971823;28;20466;-69
2023/04/22 06:16:58;;;;;;;11.32;6.47;;;;;;;;;;4974328;28;20497;-66
2023/04/22 06:19:23;;;;;;;11.60;6.30;;;;;;;;;;4977070;28;20034;-67
2023/04/22 06:21:48;;;;;;;10.33;6.67;;;;;;;;;;4971391;28;20038;-66
2023/04/22 06:24:13;;;;;;;12.20;7.15;;;;;;;;;;4972499;28;20483;-67
2023/04/22 06:26:40;;;;;;;13.00;6.43;;;;;;;;;;4972257;28;20035;-65
2023/04/22 06:29:05;;;;;;;10.73;6.43;;;;;;;;;;4972362;28;20033;-67
2023/04/22 06:31:31;;;;;;;12.25;6.78;;;;;;;;;;4973780;28;20035;-65
2023/04/22 06:33:56;;;;;;;12.75;7.05;;;;;;;;;;4973730;28;20023;-65
2023/04/22 06:36:21;;;;;;;10.43;6.33;;;;;;;;;;4966622;28;20042;-75
2023/04/22 06:38:46;;;;;;;11.90;6.63;;;;;;;;;;4969202;28;20031;-65
2023/04/22 06:41:12;;;;;;;10.33;5.93;;;;;;;;;;4975668;28;20142;-66
2023/04/22 06:43:37;;;;;;;12.00;6.60;;;;;;;;;;4978191;28;20491;-70
2023/04/22 06:46:03;;;;;;;11.27;6.60;;;;;;;;;;4971122;28;20030;-65
2023/04/22 06:48:28;;;;;;;14.23;6.67;;;;;;;;;;4972413;28;20027;-65
2023/04/22 06:50:53;;;;;;;11.18;6.43;;;;;;;;;;4972957;28;20031;-66
2023/04/22 06:53:18;;;;;;;11.32;6.45;;;;;;;;;;4973760;28;20027;-66
2023/04/22 06:55:44;;;;;;;13.00;6.15;;;;;;;;;;4970838;28;20121;-65
2023/04/22 06:58:09;;;;;;;10.73;6.10;;;;;;;;;;4971683;28;20031;-65
2023/04/22 07:00:34;;;;;;;10.50;5.80;;;;;;;;;;4971646;28;20427;-66
2023/04/22 07:02:59;;;;;;;11.35;6.47;;;;;;;;;;4967674;28;20066;-66
2023/04/22 07:05:24;;;;;;;10.20;5.53;;;;;;;;;;4967237;28;20442;-68
2023/04/22 07:07:50;;;;;;;14.13;6.50;;;;;;;;;;4956975;28;20054;-71
2023/04/22 07:10:15;;;;;;;9.65;5.70;;;;;;;;;;4976246;28;20034;-65
2023/04/22 07:12:40;;;;;;;9.67;5.90;;;;;;;;;;4971222;28;20386;-66
2023/04/22 07:15:06;;;;;;;11.38;6.03;;;;;;;;;;4979259;28;20300;-65
2023/04/22 07:17:31;;;;;;;9.73;6.57;;;;;;;;;;4973031;28;20038;-66
2023/04/22 07:19:56;;;;;;;11.15;6.10;;;;;;;;;;4973403;28;20029;-66
2023/04/22 07:22:21;;;;;;;10.27;6.27;;;;;;;;;;4971539;28;20092;-72
2023/04/22 07:24:46;;;;;;;10.75;6.60;;;;;;;;;;4973437;28;20146;-73
2023/04/22 07:27:12;;;;;;;9.88;5.93;;;;;;;;;;4966730;28;20101;-66
2023/04/22 07:29:37;;;;;;;10.67;5.87;;;;;;;;;;4970022;28;20027;-73
2023/04/22 07:32:02;;;;;;;12.03;5.80;;;;;;;;;;4970160;28;20494;-69
2023/04/22 07:34:27;;;;;;;11.03;6.00;;;;;;;;;;4971964;28;20046;-65
2023/04/22 07:36:52;;;;;;;12.00;5.53;;;;;;;;;;4963521;28;20077;-66
2023/04/22 07:39:18;;;;;;;9.97;5.83;;;;;;;;;;4971093;28;20023;-65
2023/04/22 07:41:43;;;;;;;9.33;6.13;;;;;;;;;;4970110;28;20030;-66
2023/04/22 07:44:09;;;;;;;11.70;6.40;;;;;;;;;;4973924;28;20026;-65
2023/04/22 07:46:34;;;;;;;11.02;6.60;;;;;;;;;;4971178;28;20533;-65
2023/04/22 07:48:59;;;;;;;12.20;6.37;;;;;;;;;;4961469;28;20023;-65
2023/04/22 07:51:25;;;;;;;13.13;6.55;;;;;;;;;;4967665;28;20026;-67
2023/04/22 07:53:50;;;;;;;16.33;6.30;;;;;;;;;;4971820;28;20023;-65
2023/04/22 07:56:15;;;;;;;9.97;6.00;;;;;;;;;;4969564;28;20077;-68
2023/04/22 07:58:40;;;;;;;10.37;6.23;;;;;;;;;;4968353;28;20019;-64
2023/04/22 08:01:05;;;;;;;13.55;6.38;;;;;;;;;;4964778;28;20011;-64
2023/04/22 08:03:30;;;;;;;10.60;5.95;;;;;;;;;;4965251;28;20023;-67
2023/04/22 08:05:57;;;;;;;10.65;6.50;;;;;;;;;;4968278;28;20800;-67
2023/04/22 08:08:22;;;;;;;13.32;6.47;;;;;;;;;;4966631;28;20031;-66
2023/04/22 08:10:47;;;;;;;11.45;6.05;;;;;;;;;;4969986;28;20081;-65
2023/04/22 08:13:12;;;;;;;10.98;5.72;;;;;;;;;;4968521;28;20070;-63
2023/04/22 08:15:38;;;;;;;9.40;6.07;;;;;;;;;;4971103;28;20054;-71
2023/04/22 08:18:03;;;;;;;12.30;6.20;;;;;;;;;;4963405;28;20023;-69
2023/04/22 08:20:28;;;;;;;12.43;6.00;;;;;;;;;;4971702;28;20030;-64
2023/04/22 08:22:57;;;;;;;9.93;5.73;;;;;;;;;;4953932;28;20103;-65
2023/04/22 08:25:22;;;;;;;10.77;6.20;;;;;;;;;;4968616;28;20034;-66
2023/04/22 08:27:48;;;;;;;10.00;5.40;;;;;;;;;;4954437;28;20031;-69
2023/04/22 08:30:14;;;;;;;8.88;6.05;;;;;;;;;;4971191;28;20088;-64
2023/04/22 08:32:39;;;;;;;8.90;5.50;;;;;;;;;;4966348;28;20454;-64
2023/04/22 08:35:04;;;;;;;11.47;6.23;;;;;;;;;;4966596;28;20322;-64
2023/04/22 08:37:29;;;;;;;9.87;5.80;;;;;;;;;;4970396;28;20034;-66
2023/04/22 08:39:55;;;;;;;11.10;6.20;;;;;;;;;;4967651;28;20114;-64
2023/04/22 08:42:21;;;;;;;12.07;6.43;;;;;;;;;;4971270;28;20109;-64
2023/04/22 08:44:47;;;;;;;12.35;5.60;;;;;;;;;;4962844;28;20027;-70
2023/04/22 08:47:13;;;;;;;14.00;6.97;;;;;;;;;;4965991;28;20029;-65
2023/04/22 08:49:38;;;;;;;10.02;5.97;;;;;;;;;;4967914;28;20376;-72
2023/04/22 08:52:03;;;;;;;10.10;6.10;;;;;;;;;;4971846;28;20026;-67
2023/04/22 08:54:28;;;;;;;10.60;5.90;;;;;;;;;;4971375;28;20399;-66
2023/04/22 08:56:54;;;;;;;10.33;5.90;;;;;;;;;;4962127;28;20032;-67
2023/04/22 08:59:20;;;;;;;9.50;6.10;;;;;;;;;;4965495;28;20023;-65
2023/04/22 09:01:48;;;;;;;8.75;5.82;;;;;;;;;;4963436;28;20360;-68
2023/04/22 09:04:14;;;;;;;11.70;6.32;;;;;;;;;;4971629;28;20046;-69
2023/04/22 09:06:39;;;;;;;10.27;5.78;;;;;;;;;;4963416;28;20055;-64
2023/04/22 09:09:04;;;;;;;9.70;5.57;;;;;;;;;;4971572;28;20019;-68
2023/04/22 09:11:30;;;;;;;10.93;5.80;;;;;;;;;;4969975;28;20101;-63
2023/04/22 09:13:55;;;;;;;10.35;5.80;;;;;;;;;;4952942;28;20030;-64
2023/04/22 09:16:20;;;;;;;11.57;6.30;;;;;;;;;;4957070;28;20431;-75
2023/04/22 09:18:46;;;;;;;9.60;5.18;;;;;;;;;;4964871;28;20486;-67
2023/04/22 09:21:11;;;;;;;8.13;5.50;;;;;;;;;;4954893;28;20102;-64
2023/04/22 09:23:47;;;;;;;10.83;5.90;;;;;;;;;;4967557;28;20031;-66
2023/04/22 09:26:14;;;;;;;11.00;5.90;;;;;;;;;;4972340;28;20454;-70
2023/04/22 09:28:47;;;;;;;9.10;5.05;;;;;;;;;;4974543;28;20023;-68
2023/04/22 09:31:13;;;;;;;9.45;5.88;;;;;;;;;;4974048;28;20027;-68
2023/04/22 09:33:38;;;;;;;9.77;5.93;;;;;;;;;;4966432;28;20026;-67
2023/04/22 09:36:07;;;;;;;7.10;4.65;;;;;;;;;;4971879;28;20019;-66
2023/04/22 09:38:32;;;;;;;10.10;4.30;;;;;;;;;;4955227;29;20022;-66
2023/04/22 09:40:57;;;;;;;10.10;4.80;;;;;;;;;;4965396;28;20019;-65
2023/04/22 09:43:22;;;;;;;9.40;5.05;;;;;;;;;;4960805;28;20144;-68
2023/04/22 09:45:48;;;;;;;9.63;4.72;;;;;;;;;;4955836;28;20476;-66
2023/04/22 09:48:17;;;;;;;9.47;5.30;;;;;;;;;;4970068;28;20043;-66
2023/04/22 09:50:44;;;;;;;11.27;5.20;;;;;;;;;;4964005;28;20168;-68
2023/04/22 09:53:10;;;;;;;9.82;4.85;;;;;;;;;;4965494;28;20136;-73
2023/04/22 09:55:40;;;;;;;9.50;4.82;;;;;;;;;;4968201;28;20386;-67
2023/04/22 09:58:07;;;;;;;11.45;4.93;;;;;;;;;;4962393;28;20118;-66
2023/04/22 10:00:33;;;;;;;11.63;4.95;;;;;;;;;;4969354;28;20068;-69
2023/04/22 10:02:59;;;;;;;11.27;4.93;;;;;;;;;;4983585;28;20027;-65
2023/04/22 10:05:24;;;;;;;10.07;4.90;;;;;;;;;;4971755;28;20113;-63
2023/04/22 10:07:50;;;;;;;8.13;4.18;;;;;;;;;;4975445;28;20054;-66
2023/04/22 10:10:15;;;;;;;9.60;4.57;;;;;;;;;;4970010;28;20038;-72
2023/04/22 10:12:40;;;;;;;8.18;4.50;;;;;;;;;;4972149;28;20023;-74
2023/04/22 10:15:06;;;;;;;9.02;4.50;;;;;;;;;;4973019;28;20022;-71
2023/04/22 10:17:32;;;;;;;11.32;3.95;;;;;;;;;;4968921;28;20530;-66
2023/04/22 10:19:57;;;;;;;;;;;;;;;;;;4971906;28;20026;-66
2023/04/22 10:22:22;;;;;;;7.20;4.20;;;;;;;;;;4975619;28;19922;-65
2023/04/22 10:24:49;;;;;;;14.37;4.23;;;;;;;;;;4976140;28;20031;-66
2023/04/22 10:27:19;;;;;;;8.88;3.97;;;;;;;;;;4968462;28;20467;-64
2023/04/22 10:29:44;;;;;;;9.07;3.92;;;;;;;;;;4967335;28;20031;-66
2023/04/22 10:32:10;;;;;;;9.00;4.00;;;;;;;;;;4973504;28;20030;-65
2023/04/22 10:34:37;;;;;;;9.70;4.38;;;;;;;;;;4969859;28;20054;-66
2023/04/22 10:37:05;;;;;;;6.97;3.80;;;;;;;;;;4970291;28;20015;-65
2023/04/22 10:39:30;;;;;;;7.90;4.03;;;;;;;;;;4977166;28;20071;-65
2023/04/22 10:42:04;;;;;;;8.70;4.30;;;;;;;;;;4970476;28;20030;-67
2023/04/22 10:44:45;;;;;;;7.68;3.42;;;;;;;;;;4971143;28;20034;-69
2023/04/22 10:47:10;;;;;;;7.47;4.20;;;;;;;;;;4968902;28;20105;-65
2023/04/22 10:49:35;;;;;;;7.83;4.30;;;;;;;;;;4970982;28;20126;-73
2023/04/22 10:52:02;;;;;;;7.53;4.05;;;;;;;;;;4966033;28;20395;-64
2023/04/22 10:54:27;;;;;;;8.65;3.90;;;;;;;;;;4962731;28;20014;-67
2023/04/22 10:57:05;;;;;;;10.17;4.23;;;;;;;;;;4968958;28;20115;-66
2023/04/22 10:59:31;;;;;;;8.02;4.45;;;;;;;;;;4966466;28;20106;-66
2023/04/22 11:02:00;;;;;;;8.60;4.40;;;;;;;;;;4970644;28;20023;-64
2023/04/22 11:04:25;;;;;;;8.52;4.20;;;;;;;;;;4973004;28;20030;-69
2023/04/22 11:07:09;;;;;;;8.90;3.97;;;;;;;;;;4968675;28;20030;-71
2023/04/22 11:09:38;;;;;;;9.82;4.65;;;;;;;;;;4970183;28;20030;-66
2023/04/22 11:12:22;;;;;;;9.00;3.95;;;;;;;;;;4976657;28;20026;-67
2023/04/22 11:14:48;;;;;;;6.43;3.67;;;;;;;;;;4968491;28;20022;-65
2023/04/22 11:17:14;;;;;;;8.35;4.10;;;;;;;;;;4980135;28;20181;-70
2023/04/22 11:19:39;;;;;;;7.80;3.80;;;;;;;;;;4967333;28;20121;-76
2023/04/22 11:22:04;;;;;;;6.90;3.80;;;;;;;;;;4971466;28;20038;-68
2023/04/22 11:24:29;;;;;;;9.52;4.50;;;;;;;;;;4968354;28;20037;-66
2023/04/22 11:26:55;;;;;;;6.97;3.90;;;;;;;;;;4967330;28;20026;-65
2023/04/22 11:29:20;;;;;;;;;;;;;;;;;;4961683;28;20636;-66
2023/04/22 11:31:47;;;;;;;7.38;4.03;;;;;;;;;;4968737;28;20370;-65
2023/04/22 11:34:12;;;;;;;7.18;4.05;;;;;;;;;;4968600;28;20031;-68
2023/04/22 11:36:41;;;;;;;10.38;4.50;;;;;;;;;;4969728;28;20126;-65
2023/04/22 11:39:13;;;;;;;7.35;3.80;;;;;;;;;;4974630;28;20487;-68
2023/04/22 11:41:41;;;;;;;7.97;3.70;;;;;;;;;;4977478;28;20031;-67
2023/04/22 11:44:06;;;;;;;8.57;3.78;;;;;;;;;;4969161;28;20031;-66
2023/04/22 11:46:38;;;;;;;7.70;3.67;;;;;;;;;;4961492;28;20035;-66
2023/04/22 11:49:15;;;;;;;6.75;3.67;;;;;;;;;;4965337;28;20039;-69
2023/04/22 11:51:56;;;;;;;10.68;4.13;;;;;;;;;;4969517;28;20027;-65
2023/04/22 11:54:30;;;;;;;7.65;4.05;;;;;;;;;;4972286;28;20105;-77
2023/04/22 11:56:55;;;;;;;8.20;4.40;;;;;;;;;;4972476;28;20030;-67
2023/04/22 11:59:23;;;;;;;8.95;4.10;;;;;;;;;;4970460;28;20023;-65
2023/04/22 12:01:48;;;;;;;8.05;4.00;;;;;;;;;;4974863;28;20114;-65
2023/04/22 12:04:13;;;;;;;8.80;4.00;;;;;;;;;;4972403;28;20150;-67
2023/04/22 12:06:40;;;;;;;8.85;3.60;;;;;;;;;;4969893;28;20033;-65
2023/04/22 12:09:06;;;;;;;8.43;3.90;;;;;;;;;;4969948;28;20034;-70
2023/04/22 12:11:31;;;;;;;8.13;3.88;;;;;;;;;;4970405;28;20038;-68
2023/04/22 12:14:04;;;;;;;10.13;3.60;;;;;;;;;;4970953;28;20014;-65
2023/04/22 12:16:38;;;;;;;6.88;3.67;;;;;;;;;;4969162;28;20050;-71
2023/04/22 12:19:03;;;;;;;8.82;3.83;;;;;;;;;;4970018;28;20054;-72
2023/04/22 12:21:28;;;;;;;8.43;3.70;;;;;;;;;;4970542;28;20057;-66
2023/04/22 12:23:54;;;;;;;7.63;3.78;;;;;;;;;;4971782;28;20469;-66
2023/04/22 12:26:20;;;;;;;6.43;3.57;;;;;;;;;;4972165;28;20046;-71
2023/04/22 12:28:46;;;;;;;9.95;4.00;;;;;;;;;;4970082;28;20114;-69
2023/04/22 12:31:12;;;;;;;8.18;4.10;;;;;;;;;;4969433;28;20460;-65
2023/04/22 12:33:37;;;;;;;10.60;4.50;;;;;;;;;;4971012;28;20027;-67
2023/04/22 12:36:02;;;;;;;6.90;4.10;;;;;;;;;;4968660;28;20623;-67
2023/04/22 12:38:27;;;;;;;8.45;3.90;;;;;;;;;;4965046;28;20019;-68
2023/04/22 12:40:53;;;;;;;8.13;3.70;;;;;;;;;;4970097;28;20038;-66
2023/04/22 12:43:18;;;;;;;7.30;3.90;;;;;;;;;;4952578;28;20035;-65
2023/04/22 12:45:43;;;;;;;8.30;3.90;;;;;;;;;;4956724;28;20018;-68
2023/04/22 12:48:09;;;;;;;7.93;3.85;;;;;;;;;;4967842;28;20392;-65
2023/04/22 12:50:34;;;;;;;9.53;4.10;;;;;;;;;;4967215;28;20444;-66
2023/04/22 12:52:59;;;;;;;9.13;3.93;;;;;;;;;;4970929;28;20085;-65
2023/04/22 12:55:24;;;;;;;8.63;3.70;;;;;;;;;;4969983;28;20034;-65
2023/04/22 12:57:50;;;;;;;8.77;3.60;;;;;;;;;;4971097;28;20446;-71
2023/04/22 13:00:15;;;;;;;9.63;4.18;;;;;;;;;;4969951;28;20019;-64
2023/04/22 13:02:41;;;;;;;7.28;4.03;;;;;;;;;;4970939;28;20384;-67
2023/04/22 13:05:06;;;;;;;7.82;3.83;;;;;;;;;;4974704;28;20018;-66
2023/04/22 13:07:32;;;;;;;12.63;4.00;;;;;;;;;;4974254;28;20030;-66
2023/04/22 13:09:57;;;;;;;7.73;3.57;;;;;;;;;;4970682;28;20023;-66
2023/04/22 13:12:22;;;;;;;7.38;3.97;;;;;;;;;;4968546;28;20034;-68
2023/04/22 13:14:47;;;;;;;8.70;4.03;;;;;;;;;;4975212;28;20030;-67
2023/04/22 13:17:13;;;;;;;6.50;3.78;;;;;;;;;;4974795;28;20030;-67
2023/04/22 13:19:38;;;;;;;7.97;3.90;;;;;;;;;;4969753;28;20498;-65
2023/04/22 13:22:03;;;;;;;5.97;3.60;;;;;;;;;;4973829;28;20026;-65
2023/04/22 13:24:28;;;;;;;8.70;3.93;;;;;;;;;;4967216;28;20022;-71
2023/04/22 13:26:53;;;;;;;6.93;3.77;;;;;;;;;;4973480;28;20436;-66
2023/04/22 13:29:18;;;;;;;7.80;3.80;;;;;;;;;;4973393;28;20021;-67
2023/04/22 13:31:44;;;;;;;9.02;4.20;;;;;;;;;;4975466;28;20031;-64
2023/04/22 13:34:09;;;;;;;11.40;3.60;;;;;;;;;;4975179;28;20446;-66
2023/04/22 13:36:35;;;;;;;8.88;4.10;;;;;;;;;;4973342;28;20449;-69
2023/04/22 13:39:00;;;;;;;7.30;3.50;;;;;;;;;;4971894;28;20050;-67
2023/04/22 13:41:25;;;;;;;8.87;4.33;;;;;;;;;;4965374;28;20045;-66
2023/04/22 13:43:53;;;;;;;7.00;3.70;;;;;;;;;;4974394;28;20037;-65
2023/04/22 13:46:18;;;;;;;9.77;3.50;;;;;;;;;;4974169;28;20058;-66
2023/04/22 13:48:43;;;;;;;7.50;3.87;;;;;;;;;;4968526;28;20101;-68
2023/04/22 13:51:08;;;;;;;7.47;3.60;;;;;;;;;;4971154;28;20525;-65
2023/04/22 13:53:33;;;;;;;10.75;3.97;;;;;;;;;;4970919;28;20019;-65
2023/04/22 13:55:59;;;;;;;9.67;4.23;;;;;;;;;;4972566;28;20023;-71
2023/04/22 13:58:24;;;;;;;8.00;3.60;;;;;;;;;;4974314;28;20423;-65
2023/04/22 14:00:49;;;;;;;8.53;3.67;;;;;;;;;;4972755;28;20034;-70
2023/04/22 14:03:14;;;;;;;8.17;3.80;;;;;;;;;;4974061;28;20037;-67
2023/04/22 14:05:39;;;;;;;7.70;3.53;;;;;;;;;;4972412;28;20034;-78
2023/04/22 14:08:05;;;;;;;6.85;3.47;;;;;;;;;;4969919;28;20023;-65
2023/04/22 14:10:30;;;;;;;8.23;3.78;;;;;;;;;;4971488;28;20542;-67
2023/04/22 14:12:55;;;;;;;6.70;3.40;;;;;;;;;;4974015;28;20071;-66
2023/04/22 14:15:20;;;;;;;6.63;3.35;;;;;;;;;;4972946;28;20498;-65
2023/04/22 14:17:48;;;;;;;8.65;3.78;;;;;;;;;;4971784;28;20098;-71
2023/04/22 14:20:13;;;;;;;10.90;4.05;;;;;;;;;;4972397;28;20090;-65
2023/04/22 14:22:38;;;;;;;8.83;3.67;;;;;;;;;;4974559;28;20023;-65
2023/04/22 14:25:05;;;;;;;6.63;3.60;;;;;;;;;;4972394;28;20501;-72
2023/04/22 14:27:30;;;;;;;7.45;3.35;;;;;;;;;;4965044;28;20019;-65